sensor_id;sensor_type;location;lat;lon;timestamp;temperature;humidity
2389;DHT22;1205;47.984;7.668;2023-03-31T00:00:10;13.70;99.90
2389;DHT22;1205;47.984;7.668;2023-03-31T00:02:37;13.60;99.90
2389;DHT22;1205;47.984;7.668;2023-03-31T00:05:07;13.70;99.90
2389;DHT22;1205;47.984;7.668;2023-03-31T00:07:32;13.70;99.90
2389;DHT22;1205;47.984;7.668;2023-03-31T00:09:58;13.70;99.90
2389;DHT22;1205;47.984;7.668;2023-03-31T00:12:26;13.90;99.90
2389;DHT22;1205;47.984;7.668;2023-03-31T00:14:52;13.80;99.90
2389;DHT22;1205;47.984;7.668;2023-03-31T00:17:17;13.90;99.90
2389;DHT22;1205;47.984;7.668;2023-03-31T00:19:43;13.90;99.90
2389;DHT22;1205;47.984;7.668;2023-03-31T00:22:08;13.90;99.90
2389;DHT22;1205;47.984;7.668;2023-03-31T00:24:35;13.90;99.50
2389;DHT22;1205;47.984;7.668;2023-03-31T00:27:01;14.20;98.20
2389;DHT22;1205;47.984;7.668;2023-03-31T00:29:28;14.20;98.90
2389;DHT22;1205;47.984;7.668;2023-03-31T00:31:53;14.20;98.90
2389;DHT22;1205;47.984;7.668;2023-03-31T00:34:20;14.20;99.20
2389;DHT22;1205;47.984;7.668;2023-03-31T00:36:46;14.10;98.60
2389;DHT22;1205;47.984;7.668;2023-03-31T00:39:13;14.00;99.00
2389;DHT22;1205;47.984;7.668;2023-03-31T00:41:39;13.90;99.00
2389;DHT22;1205;47.984;7.668;2023-03-31T00:49:46;13.80;99.90
2389;DHT22;1205;47.984;7.668;2023-03-31T00:52:16;13.80;99.90
2389;DHT22;1205;47.984;7.668;2023-03-31T00:54:46;13.80;99.90
2389;DHT22;1205;47.984;7.668;2023-03-31T00:57:14;13.80;99.90
2389;DHT22;1205;47.984;7.668;2023-03-31T00:59:48;13.80;99.90
2389;DHT22;1205;47.984;7.668;2023-03-31T01:02:15;13.80;99.90
2389;DHT22;1205;47.984;7.668;2023-03-31T01:04:49;13.80;99.90
2389;DHT22;1205;47.984;7.668;2023-03-31T01:07:41;13.70;99.90
2389;DHT22;1205;47.984;7.668;2023-03-31T01:10:09;13.70;99.90
2389;DHT22;1205;47.984;7.668;2023-03-31T01:12:37;13.60;99.90
2389;DHT22;1205;47.984;7.668;2023-03-31T01:15:04;13.50;99.90
2389;DHT22;1205;47.984;7.668;2023-03-31T01:17:31;13.50;99.90
2389;DHT22;1205;47.984;7.668;2023-03-31T01:20:24;13.50;99.90
2389;DHT22;1205;47.984;7.668;2023-03-31T01:37:26;13.30;99.90
2389;DHT22;1205;47.984;7.668;2023-03-31T01:45:25;13.20;99.90
2389;DHT22;1205;47.984;7.668;2023-03-31T01:48:04;13.30;99.90
2389;DHT22;1205;47.984;7.668;2023-03-31T01:50:56;13.20;99.90
2389;DHT22;1205;47.984;7.668;2023-03-31T01:53:35;13.20;99.90
2389;DHT22;1205;47.984;7.668;2023-03-31T01:56:31;13.10;99.90
2389;DHT22;1205;47.984;7.668;2023-03-31T01:59:15;13.10;99.90
2389;DHT22;1205;47.984;7.668;2023-03-31T02:02:02;13.20;99.90
2389;DHT22;1205;47.984;7.668;2023-03-31T02:04:35;13.20;99.90
2389;DHT22;1205;47.984;7.668;2023-03-31T02:07:08;13.20;99.90
2389;DHT22;1205;47.984;7.668;2023-03-31T02:09:39;13.20;99.90
2389;DHT22;1205;47.984;7.668;2023-03-31T02:12:10;13.20;99.90
2389;DHT22;1205;47.984;7.668;2023-03-31T02:14:39;13.10;99.90
2389;DHT22;1205;47.984;7.668;2023-03-31T02:17:06;13.20;99.90
2389;DHT22;1205;47.984;7.668;2023-03-31T02:19:39;13.20;99.90
2389;DHT22;1205;47.984;7.668;2023-03-31T02:22:08;13.20;99.90
2389;DHT22;1205;47.984;7.668;2023-03-31T02:24:35;13.20;99.90
2389;DHT22;1205;47.984;7.668;2023-03-31T02:27:32;13.20;99.90
2389;DHT22;1205;47.984;7.668;2023-03-31T02:30:00;13.20;99.90
2389;DHT22;1205;47.984;7.668;2023-03-31T02:32:43;13.20;99.90
2389;DHT22;1205;47.984;7.668;2023-03-31T02:35:15;13.20;99.90
2389;DHT22;1205;47.984;7.668;2023-03-31T02:37:42;13.20;99.90
2389;DHT22;1205;47.984;7.668;2023-03-31T02:40:20;13.20;99.90
2389;DHT22;1205;47.984;7.668;2023-03-31T02:42:47;13.20;99.90
2389;DHT22;1205;47.984;7.668;2023-03-31T02:45:35;13.30;99.90
2389;DHT22;1205;47.984;7.668;2023-03-31T02:48:02;13.30;99.90
2389;DHT22;1205;47.984;7.668;2023-03-31T02:50:34;13.20;99.90
2389;DHT22;1205;47.984;7.668;2023-03-31T02:53:26;13.30;99.90
2389;DHT22;1205;47.984;7.668;2023-03-31T02:56:15;13.30;99.90
2389;DHT22;1205;47.984;7.668;2023-03-31T03:09:35;13.40;99.90
2389;DHT22;1205;47.984;7.668;2023-03-31T03:14:55;13.40;99.90
2389;DHT22;1205;47.984;7.668;2023-03-31T03:17:25;13.40;99.90
2389;DHT22;1205;47.984;7.668;2023-03-31T03:19:59;13.40;99.90
2389;DHT22;1205;47.984;7.668;2023-03-31T03:22:25;13.50;99.90
2389;DHT22;1205;47.984;7.668;2023-03-31T03:24:50;13.50;99.90
2389;DHT22;1205;47.984;7.668;2023-03-31T03:27:18;13.50;99.90
2389;DHT22;1205;47.984;7.668;2023-03-31T03:29:46;13.50;99.90
2389;DHT22;1205;47.984;7.668;2023-03-31T03:32:12;13.50;99.90
2389;DHT22;1205;47.984;7.668;2023-03-31T03:34:38;13.50;99.90
2389;DHT22;1205;47.984;7.668;2023-03-31T03:37:03;13.50;99.90
2389;DHT22;1205;47.984;7.668;2023-03-31T03:39:30;13.50;99.90
2389;DHT22;1205;47.984;7.668;2023-03-31T03:41:55;13.50;99.90
2389;DHT22;1205;47.984;7.668;2023-03-31T03:44:21;13.50;99.90
2389;DHT22;1205;47.984;7.668;2023-03-31T03:46:46;13.50;99.90
2389;DHT22;1205;47.984;7.668;2023-03-31T03:49:12;13.40;99.90
2389;DHT22;1205;47.984;7.668;2023-03-31T03:51:38;13.50;99.90
2389;DHT22;1205;47.984;7.668;2023-03-31T03:54:03;13.50;99.90
2389;DHT22;1205;47.984;7.668;2023-03-31T03:56:29;13.50;99.90
2389;DHT22;1205;47.984;7.668;2023-03-31T03:58:55;13.50;99.90
2389;DHT22;1205;47.984;7.668;2023-03-31T04:01:22;13.50;99.90
2389;DHT22;1205;47.984;7.668;2023-03-31T04:03:48;13.50;99.90
2389;DHT22;1205;47.984;7.668;2023-03-31T04:06:13;13.60;99.90
2389;DHT22;1205;47.984;7.668;2023-03-31T04:08:39;13.50;99.90
2389;DHT22;1205;47.984;7.668;2023-03-31T04:11:13;13.50;99.90
2389;DHT22;1205;47.984;7.668;2023-03-31T04:13:39;13.50;99.90
2389;DHT22;1205;47.984;7.668;2023-03-31T04:16:06;13.40;99.90
2389;DHT22;1205;47.984;7.668;2023-03-31T04:18:31;13.30;99.90
2389;DHT22;1205;47.984;7.668;2023-03-31T04:20:57;13.30;99.90
2389;DHT22;1205;47.984;7.668;2023-03-31T04:23:33;13.20;99.90
2389;DHT22;1205;47.984;7.668;2023-03-31T04:25:59;13.20;99.90
2389;DHT22;1205;47.984;7.668;2023-03-31T04:28:25;13.20;99.90
2389;DHT22;1205;47.984;7.668;2023-03-31T04:30:59;13.20;99.90
2389;DHT22;1205;47.984;7.668;2023-03-31T04:33:25;12.90;99.90
2389;DHT22;1205;47.984;7.668;2023-03-31T04:35:51;12.70;99.90
2389;DHT22;1205;47.984;7.668;2023-03-31T04:38:23;12.60;99.90
2389;DHT22;1205;47.984;7.668;2023-03-31T04:40:52;12.50;99.90
2389;DHT22;1205;47.984;7.668;2023-03-31T04:43:19;12.50;99.90
2389;DHT22;1205;47.984;7.668;2023-03-31T04:45:45;12.40;99.90
2389;DHT22;1205;47.984;7.668;2023-03-31T04:48:11;12.30;99.90
2389;DHT22;1205;47.984;7.668;2023-03-31T04:50:37;12.20;99.90
2389;DHT22;1205;47.984;7.668;2023-03-31T04:53:04;12.00;99.90
2389;DHT22;1205;47.984;7.668;2023-03-31T04:55:30;12.00;99.90
2389;DHT22;1205;47.984;7.668;2023-03-31T04:57:55;11.90;99.90
2389;DHT22;1205;47.984;7.668;2023-03-31T05:00:22;12.00;99.90
2389;DHT22;1205;47.984;7.668;2023-03-31T05:02:47;11.90;99.90
2389;DHT22;1205;47.984;7.668;2023-03-31T05:05:13;11.90;99.90
2389;DHT22;1205;47.984;7.668;2023-03-31T05:07:38;11.90;99.90
2389;DHT22;1205;47.984;7.668;2023-03-31T05:10:06;12.00;99.90
2389;DHT22;1205;47.984;7.668;2023-03-31T05:12:35;12.00;99.90
2389;DHT22;1205;47.984;7.668;2023-03-31T05:15:02;12.00;99.90
2389;DHT22;1205;47.984;7.668;2023-03-31T05:17:31;12.00;99.90
2389;DHT22;1205;47.984;7.668;2023-03-31T05:19:57;12.00;99.90
2389;DHT22;1205;47.984;7.668;2023-03-31T05:22:23;12.00;99.90
2389;DHT22;1205;47.984;7.668;2023-03-31T05:24:49;12.10;99.90
2389;DHT22;1205;47.984;7.668;2023-03-31T05:27:15;12.20;99.90
2389;DHT22;1205;47.984;7.668;2023-03-31T05:29:41;12.20;99.90
2389;DHT22;1205;47.984;7.668;2023-03-31T05:32:06;12.20;99.90
2389;DHT22;1205;47.984;7.668;2023-03-31T05:34:32;12.20;99.90
2389;DHT22;1205;47.984;7.668;2023-03-31T05:36:57;12.30;99.90
2389;DHT22;1205;47.984;7.668;2023-03-31T05:39:23;12.30;99.90
2389;DHT22;1205;47.984;7.668;2023-03-31T05:41:49;12.10;99.90
2389;DHT22;1205;47.984;7.668;2023-03-31T05:44:14;12.20;99.90
2389;DHT22;1205;47.984;7.668;2023-03-31T05:46:40;12.10;99.90
2389;DHT22;1205;47.984;7.668;2023-03-31T05:49:06;12.10;99.90
2389;DHT22;1205;47.984;7.668;2023-03-31T05:51:32;11.90;99.90
2389;DHT22;1205;47.984;7.668;2023-03-31T05:53:58;11.90;99.90
2389;DHT22;1205;47.984;7.668;2023-03-31T05:56:24;11.90;99.90
2389;DHT22;1205;47.984;7.668;2023-03-31T05:58:52;11.90;99.90
2389;DHT22;1205;47.984;7.668;2023-03-31T06:01:17;11.70;99.90
2389;DHT22;1205;47.984;7.668;2023-03-31T06:03:47;11.50;99.90
2389;DHT22;1205;47.984;7.668;2023-03-31T06:06:14;11.40;99.90
2389;DHT22;1205;47.984;7.668;2023-03-31T06:08:42;11.40;99.90
2389;DHT22;1205;47.984;7.668;2023-03-31T06:11:09;11.30;99.90
2389;DHT22;1205;47.984;7.668;2023-03-31T06:13:36;11.30;99.90
2389;DHT22;1205;47.984;7.668;2023-03-31T06:16:02;11.30;99.90
2389;DHT22;1205;47.984;7.668;2023-03-31T06:18:29;11.50;99.90
2389;DHT22;1205;47.984;7.668;2023-03-31T06:20:55;11.60;99.90
2389;DHT22;1205;47.984;7.668;2023-03-31T06:23:21;11.70;99.90
2389;DHT22;1205;47.984;7.668;2023-03-31T06:25:47;11.70;99.90
2389;DHT22;1205;47.984;7.668;2023-03-31T06:28:13;11.80;99.90
2389;DHT22;1205;47.984;7.668;2023-03-31T06:30:39;11.70;99.90
2389;DHT22;1205;47.984;7.668;2023-03-31T06:33:05;11.90;99.90
2389;DHT22;1205;47.984;7.668;2023-03-31T06:35:30;11.90;99.90
2389;DHT22;1205;47.984;7.668;2023-03-31T06:37:56;12.00;99.90
2389;DHT22;1205;47.984;7.668;2023-03-31T06:40:22;12.00;99.90
2389;DHT22;1205;47.984;7.668;2023-03-31T06:42:48;11.90;99.90
2389;DHT22;1205;47.984;7.668;2023-03-31T06:45:13;12.00;99.90
2389;DHT22;1205;47.984;7.668;2023-03-31T06:47:39;11.80;99.90
2389;DHT22;1205;47.984;7.668;2023-03-31T06:50:07;11.80;99.90
2389;DHT22;1205;47.984;7.668;2023-03-31T06:52:34;11.70;99.90
2389;DHT22;1205;47.984;7.668;2023-03-31T06:55:00;11.60;99.90
2389;DHT22;1205;47.984;7.668;2023-03-31T06:57:26;11.60;99.90
2389;DHT22;1205;47.984;7.668;2023-03-31T06:59:52;11.60;99.90
2389;DHT22;1205;47.984;7.668;2023-03-31T07:02:18;11.70;99.90
2389;DHT22;1205;47.984;7.668;2023-03-31T07:04:44;11.80;99.90
2389;DHT22;1205;47.984;7.668;2023-03-31T07:07:09;11.80;99.90
2389;DHT22;1205;47.984;7.668;2023-03-31T07:09:35;11.90;99.90
2389;DHT22;1205;47.984;7.668;2023-03-31T07:12:01;12.10;99.90
2389;DHT22;1205;47.984;7.668;2023-03-31T07:14:30;12.40;99.90
2389;DHT22;1205;47.984;7.668;2023-03-31T07:16:56;12.60;99.90
2389;DHT22;1205;47.984;7.668;2023-03-31T07:19:21;12.80;99.90
2389;DHT22;1205;47.984;7.668;2023-03-31T07:21:47;13.00;99.90
2389;DHT22;1205;47.984;7.668;2023-03-31T07:24:13;13.20;99.90
2389;DHT22;1205;47.984;7.668;2023-03-31T07:26:39;13.40;99.90
2389;DHT22;1205;47.984;7.668;2023-03-31T07:29:05;13.40;99.90
2389;DHT22;1205;47.984;7.668;2023-03-31T07:31:30;13.70;99.90
2389;DHT22;1205;47.984;7.668;2023-03-31T07:33:56;13.80;99.90
2389;DHT22;1205;47.984;7.668;2023-03-31T07:36:22;14.40;99.90
2389;DHT22;1205;47.984;7.668;2023-03-31T07:38:48;14.70;99.90
2389;DHT22;1205;47.984;7.668;2023-03-31T07:41:16;14.90;99.90
2389;DHT22;1205;47.984;7.668;2023-03-31T07:43:43;14.70;99.90
2389;DHT22;1205;47.984;7.668;2023-03-31T07:46:17;14.70;99.90
2389;DHT22;1205;47.984;7.668;2023-03-31T07:48:44;14.60;99.90
2389;DHT22;1205;47.984;7.668;2023-03-31T07:51:11;14.40;99.90
2389;DHT22;1205;47.984;7.668;2023-03-31T07:53:37;14.60;99.90
2389;DHT22;1205;47.984;7.668;2023-03-31T07:56:03;14.50;99.90
2389;DHT22;1205;47.984;7.668;2023-03-31T07:58:28;14.40;99.90
2389;DHT22;1205;47.984;7.668;2023-03-31T08:00:54;14.60;99.90
2389;DHT22;1205;47.984;7.668;2023-03-31T08:03:20;14.70;99.90
2389;DHT22;1205;47.984;7.668;2023-03-31T08:05:45;14.60;99.90
2389;DHT22;1205;47.984;7.668;2023-03-31T08:08:11;14.70;99.90
2389;DHT22;1205;47.984;7.668;2023-03-31T08:10:36;14.80;99.90
2389;DHT22;1205;47.984;7.668;2023-03-31T08:13:02;14.90;99.90
2389;DHT22;1205;47.984;7.668;2023-03-31T08:15:28;14.90;99.90
2389;DHT22;1205;47.984;7.668;2023-03-31T08:17:53;14.80;99.90
2389;DHT22;1205;47.984;7.668;2023-03-31T08:20:19;14.70;99.90
2389;DHT22;1205;47.984;7.668;2023-03-31T08:22:44;14.60;99.90
2389;DHT22;1205;47.984;7.668;2023-03-31T08:25:10;14.60;99.90
2389;DHT22;1205;47.984;7.668;2023-03-31T08:27:38;14.70;99.90
2389;DHT22;1205;47.984;7.668;2023-03-31T08:30:06;14.80;99.90
2389;DHT22;1205;47.984;7.668;2023-03-31T08:32:32;14.70;99.90
2389;DHT22;1205;47.984;7.668;2023-03-31T08:34:59;14.80;99.90
2389;DHT22;1205;47.984;7.668;2023-03-31T08:37:25;14.80;99.90
2389;DHT22;1205;47.984;7.668;2023-03-31T08:39:53;14.80;99.90
2389;DHT22;1205;47.984;7.668;2023-03-31T08:43:36;14.70;99.30
2389;DHT22;1205;47.984;7.668;2023-03-31T08:45:30;14.80;98.80
2389;DHT22;1205;47.984;7.668;2023-03-31T08:48:01;14.80;97.90
2389;DHT22;1205;47.984;7.668;2023-03-31T08:50:31;14.70;98.20
2389;DHT22;1205;47.984;7.668;2023-03-31T08:56:12;14.90;98.60
2389;DHT22;1205;47.984;7.668;2023-03-31T08:58:45;15.10;98.60
2389;DHT22;1205;47.984;7.668;2023-03-31T09:12:16;15.60;97.00
2389;DHT22;1205;47.984;7.668;2023-03-31T09:14:59;15.60;96.70
2389;DHT22;1205;47.984;7.668;2023-03-31T09:17:33;15.50;96.60
2389;DHT22;1205;47.984;7.668;2023-03-31T09:20:24;15.50;97.20
2389;DHT22;1205;47.984;7.668;2023-03-31T09:25:34;15.50;97.90
2389;DHT22;1205;47.984;7.668;2023-03-31T09:28:02;15.30;97.20
2389;DHT22;1205;47.984;7.668;2023-03-31T09:30:33;15.20;96.70
2389;DHT22;1205;47.984;7.668;2023-03-31T09:35:28;15.20;98.10
2389;DHT22;1205;47.984;7.668;2023-03-31T09:37:58;15.10;98.00
2389;DHT22;1205;47.984;7.668;2023-03-31T09:40:26;15.30;96.30
2389;DHT22;1205;47.984;7.668;2023-03-31T09:43:04;15.50;95.80
2389;DHT22;1205;47.984;7.668;2023-03-31T09:45:31;15.50;95.20
2389;DHT22;1205;47.984;7.668;2023-03-31T09:48:01;15.40;94.30
2389;DHT22;1205;47.984;7.668;2023-03-31T09:50:29;15.40;94.40
2389;DHT22;1205;47.984;7.668;2023-03-31T09:52:57;15.50;95.00
2389;DHT22;1205;47.984;7.668;2023-03-31T09:55:48;15.40;93.50
2389;DHT22;1205;47.984;7.668;2023-03-31T09:58:15;15.60;94.10
2389;DHT22;1205;47.984;7.668;2023-03-31T10:00:43;15.50;92.80
2389;DHT22;1205;47.984;7.668;2023-03-31T10:03:20;15.40;92.30
2389;DHT22;1205;47.984;7.668;2023-03-31T10:05:51;15.30;92.50
2389;DHT22;1205;47.984;7.668;2023-03-31T10:08:23;15.50;92.20
2389;DHT22;1205;47.984;7.668;2023-03-31T10:10:52;15.60;92.50
2389;DHT22;1205;47.984;7.668;2023-03-31T10:13:27;15.40;91.90
2389;DHT22;1205;47.984;7.668;2023-03-31T10:16:00;15.40;92.00
2389;DHT22;1205;47.984;7.668;2023-03-31T10:18:36;15.40;91.30
2389;DHT22;1205;47.984;7.668;2023-03-31T10:21:04;15.30;92.10
2389;DHT22;1205;47.984;7.668;2023-03-31T10:23:32;15.60;92.40
2389;DHT22;1205;47.984;7.668;2023-03-31T10:25:59;15.80;92.70
2389;DHT22;1205;47.984;7.668;2023-03-31T10:28:26;16.30;93.10
2389;DHT22;1205;47.984;7.668;2023-03-31T10:30:54;16.00;92.30
2389;DHT22;1205;47.984;7.668;2023-03-31T10:33:25;16.10;91.80
2389;DHT22;1205;47.984;7.668;2023-03-31T10:35:57;15.80;92.10
2389;DHT22;1205;47.984;7.668;2023-03-31T10:38:38;16.00;92.90
2389;DHT22;1205;47.984;7.668;2023-03-31T10:41:08;16.20;93.10
2389;DHT22;1205;47.984;7.668;2023-03-31T10:43:39;16.30;93.30
2389;DHT22;1205;47.984;7.668;2023-03-31T10:46:05;16.30;92.30
2389;DHT22;1205;47.984;7.668;2023-03-31T10:48:37;16.10;91.50
2389;DHT22;1205;47.984;7.668;2023-03-31T10:51:05;16.10;91.80
2389;DHT22;1205;47.984;7.668;2023-03-31T10:59:07;16.00;92.00
2389;DHT22;1205;47.984;7.668;2023-03-31T11:04:41;16.20;93.10
2389;DHT22;1205;47.984;7.668;2023-03-31T11:07:46;16.00;92.80
2389;DHT22;1205;47.984;7.668;2023-03-31T11:10:33;15.60;93.70
2389;DHT22;1205;47.984;7.668;2023-03-31T11:18:49;14.70;96.30
2389;DHT22;1205;47.984;7.668;2023-03-31T11:26:49;15.50;96.40
2389;DHT22;1205;47.984;7.668;2023-03-31T11:30:12;16.00;93.00
2389;DHT22;1205;47.984;7.668;2023-03-31T11:32:35;16.00;91.50
2389;DHT22;1205;47.984;7.668;2023-03-31T11:37:53;16.10;91.80
2389;DHT22;1205;47.984;7.668;2023-03-31T11:40:37;16.00;91.80
2389;DHT22;1205;47.984;7.668;2023-03-31T11:43:21;15.90;92.00
2389;DHT22;1205;47.984;7.668;2023-03-31T11:45:52;16.10;92.90
2389;DHT22;1205;47.984;7.668;2023-03-31T11:48:37;15.90;92.70
2389;DHT22;1205;47.984;7.668;2023-03-31T11:51:10;15.00;90.70
2389;DHT22;1205;47.984;7.668;2023-03-31T11:53:39;14.70;91.60
2389;DHT22;1205;47.984;7.668;2023-03-31T11:56:08;14.70;92.70
2389;DHT22;1205;47.984;7.668;2023-03-31T11:58:51;14.70;92.70
2389;DHT22;1205;47.984;7.668;2023-03-31T12:01:26;14.70;91.90
2389;DHT22;1205;47.984;7.668;2023-03-31T12:04:04;14.50;91.70
2389;DHT22;1205;47.984;7.668;2023-03-31T12:06:35;14.40;91.20
2389;DHT22;1205;47.984;7.668;2023-03-31T12:14:36;14.70;92.10
2389;DHT22;1205;47.984;7.668;2023-03-31T12:17:21;14.70;92.60
2389;DHT22;1205;47.984;7.668;2023-03-31T12:19:50;14.80;92.70
2389;DHT22;1205;47.984;7.668;2023-03-31T12:24:54;15.20;92.60
2389;DHT22;1205;47.984;7.668;2023-03-31T12:27:27;15.50;93.30
2389;DHT22;1205;47.984;7.668;2023-03-31T12:29:57;15.40;93.80
2389;DHT22;1205;47.984;7.668;2023-03-31T12:32:28;15.50;94.30
2389;DHT22;1205;47.984;7.668;2023-03-31T12:35:03;15.30;94.70
2389;DHT22;1205;47.984;7.668;2023-03-31T12:40:48;15.10;95.00
2389;DHT22;1205;47.984;7.668;2023-03-31T12:45:52;15.50;96.10
2389;DHT22;1205;47.984;7.668;2023-03-31T12:48:43;15.50;94.40
2389;DHT22;1205;47.984;7.668;2023-03-31T12:54:05;15.30;95.20
2389;DHT22;1205;47.984;7.668;2023-03-31T13:04:35;15.50;92.30
2389;DHT22;1205;47.984;7.668;2023-03-31T13:07:11;15.40;92.60
2389;DHT22;1205;47.984;7.668;2023-03-31T13:09:42;15.20;91.70
2389;DHT22;1205;47.984;7.668;2023-03-31T13:12:16;15.00;92.50
2389;DHT22;1205;47.984;7.668;2023-03-31T13:14:47;14.80;93.20
2389;DHT22;1205;47.984;7.668;2023-03-31T13:19:46;14.20;95.00
2389;DHT22;1205;47.984;7.668;2023-03-31T13:22:29;13.90;96.00
2389;DHT22;1205;47.984;7.668;2023-03-31T13:25:32;13.90;96.80
2389;DHT22;1205;47.984;7.668;2023-03-31T13:28:14;13.50;99.80
2389;DHT22;1205;47.984;7.668;2023-03-31T13:33:13;12.00;99.90
2389;DHT22;1205;47.984;7.668;2023-03-31T13:35:42;11.10;99.90
2389;DHT22;1205;47.984;7.668;2023-03-31T13:41:29;10.70;99.90
2389;DHT22;1205;47.984;7.668;2023-03-31T13:52:12;11.40;99.90
2389;DHT22;1205;47.984;7.668;2023-03-31T13:55:08;11.30;99.90
2389;DHT22;1205;47.984;7.668;2023-03-31T14:05:52;11.80;99.90
2389;DHT22;1205;47.984;7.668;2023-03-31T14:14:00;13.20;99.90
2389;DHT22;1205;47.984;7.668;2023-03-31T14:16:27;13.40;99.90
2389;DHT22;1205;47.984;7.668;2023-03-31T14:21:50;13.20;99.90
2389;DHT22;1205;47.984;7.668;2023-03-31T14:24:34;13.20;99.90
2389;DHT22;1205;47.984;7.668;2023-03-31T14:27:42;12.80;99.90
2389;DHT22;1205;47.984;7.668;2023-03-31T14:36:05;13.00;99.90
2389;DHT22;1205;47.984;7.668;2023-03-31T14:38:34;13.10;99.90
2389;DHT22;1205;47.984;7.668;2023-03-31T14:41:00;13.30;99.90
2389;DHT22;1205;47.984;7.668;2023-03-31T14:43:35;13.20;99.90
2389;DHT22;1205;47.984;7.668;2023-03-31T14:46:05;13.20;99.90
2389;DHT22;1205;47.984;7.668;2023-03-31T14:48:34;13.10;99.90
2389;DHT22;1205;47.984;7.668;2023-03-31T14:51:02;13.00;99.90
2389;DHT22;1205;47.984;7.668;2023-03-31T14:53:28;13.10;99.90
2389;DHT22;1205;47.984;7.668;2023-03-31T14:56:08;13.20;99.90
2389;DHT22;1205;47.984;7.668;2023-03-31T14:58:40;13.20;99.90
2389;DHT22;1205;47.984;7.668;2023-03-31T15:01:07;13.50;99.90
2389;DHT22;1205;47.984;7.668;2023-03-31T15:03:36;13.50;99.90
2389;DHT22;1205;47.984;7.668;2023-03-31T15:06:06;13.50;99.90
2389;DHT22;1205;47.984;7.668;2023-03-31T15:08:34;13.60;99.90
2389;DHT22;1205;47.984;7.668;2023-03-31T15:11:03;13.60;99.90
2389;DHT22;1205;47.984;7.668;2023-03-31T15:13:35;13.50;99.90
2389;DHT22;1205;47.984;7.668;2023-03-31T15:16:41;13.50;99.90
2389;DHT22;1205;47.984;7.668;2023-03-31T15:21:39;13.30;99.90
2389;DHT22;1205;47.984;7.668;2023-03-31T15:24:05;13.10;99.90
2389;DHT22;1205;47.984;7.668;2023-03-31T15:26:37;13.10;99.90
2389;DHT22;1205;47.984;7.668;2023-03-31T15:29:16;13.30;99.90
2389;DHT22;1205;47.984;7.668;2023-03-31T15:31:42;13.30;99.90
2389;DHT22;1205;47.984;7.668;2023-03-31T15:36:44;13.40;99.90
2389;DHT22;1205;47.984;7.668;2023-03-31T15:39:10;13.40;99.90
2389;DHT22;1205;47.984;7.668;2023-03-31T15:41:39;13.20;99.90
2389;DHT22;1205;47.984;7.668;2023-03-31T15:47:18;13.30;99.90
2389;DHT22;1205;47.984;7.668;2023-03-31T15:52:38;13.20;99.90
2389;DHT22;1205;47.984;7.668;2023-03-31T15:55:30;13.40;99.90
2389;DHT22;1205;47.984;7.668;2023-03-31T15:57:59;13.30;99.90
2389;DHT22;1205;47.984;7.668;2023-03-31T16:03:19;13.00;99.90
2389;DHT22;1205;47.984;7.668;2023-03-31T16:05:53;13.00;99.90
2389;DHT22;1205;47.984;7.668;2023-03-31T16:08:27;13.10;99.90
2389;DHT22;1205;47.984;7.668;2023-03-31T16:11:06;13.10;99.90
2389;DHT22;1205;47.984;7.668;2023-03-31T16:13:33;13.20;99.90
2389;DHT22;1205;47.984;7.668;2023-03-31T16:16:07;13.30;99.90
2389;DHT22;1205;47.984;7.668;2023-03-31T16:18:36;13.30;99.90
2389;DHT22;1205;47.984;7.668;2023-03-31T16:21:05;13.30;99.90
2389;DHT22;1205;47.984;7.668;2023-03-31T16:23:34;13.40;99.90
2389;DHT22;1205;47.984;7.668;2023-03-31T16:26:03;13.40;99.90
2389;DHT22;1205;47.984;7.668;2023-03-31T16:28:31;13.30;99.90
2389;DHT22;1205;47.984;7.668;2023-03-31T16:30:58;13.30;99.90
2389;DHT22;1205;47.984;7.668;2023-03-31T16:33:27;13.30;99.90
2389;DHT22;1205;47.984;7.668;2023-03-31T16:35:54;13.30;99.90
2389;DHT22;1205;47.984;7.668;2023-03-31T16:38:25;13.20;99.90
2389;DHT22;1205;47.984;7.668;2023-03-31T16:40:53;13.20;99.90
2389;DHT22;1205;47.984;7.668;2023-03-31T16:43:21;13.00;99.90
2389;DHT22;1205;47.984;7.668;2023-03-31T16:48:19;12.90;99.90
2389;DHT22;1205;47.984;7.668;2023-03-31T16:50:47;12.80;99.90
2389;DHT22;1205;47.984;7.668;2023-03-31T16:53:14;13.00;99.90
2389;DHT22;1205;47.984;7.668;2023-03-31T16:55:40;12.90;99.90
2389;DHT22;1205;47.984;7.668;2023-03-31T16:58:06;12.80;99.90
2389;DHT22;1205;47.984;7.668;2023-03-31T17:00:33;12.80;99.90
2389;DHT22;1205;47.984;7.668;2023-03-31T17:03:01;12.60;99.90
2389;DHT22;1205;47.984;7.668;2023-03-31T17:05:27;12.70;99.90
2389;DHT22;1205;47.984;7.668;2023-03-31T17:07:55;12.60;99.90
2389;DHT22;1205;47.984;7.668;2023-03-31T17:10:22;12.70;99.90
2389;DHT22;1205;47.984;7.668;2023-03-31T17:12:47;12.70;99.90
2389;DHT22;1205;47.984;7.668;2023-03-31T17:15:13;12.70;99.90
2389;DHT22;1205;47.984;7.668;2023-03-31T17:17:39;12.70;99.90
2389;DHT22;1205;47.984;7.668;2023-03-31T17:20:05;12.70;99.90
2389;DHT22;1205;47.984;7.668;2023-03-31T17:22:31;12.70;99.90
2389;DHT22;1205;47.984;7.668;2023-03-31T17:24:57;12.60;99.90
2389;DHT22;1205;47.984;7.668;2023-03-31T17:27:27;12.70;99.90
2389;DHT22;1205;47.984;7.668;2023-03-31T17:29:54;12.70;99.90
2389;DHT22;1205;47.984;7.668;2023-03-31T17:32:20;12.70;99.90
2389;DHT22;1205;47.984;7.668;2023-03-31T17:34:47;12.80;99.90
2389;DHT22;1205;47.984;7.668;2023-03-31T17:37:17;12.80;99.90
2389;DHT22;1205;47.984;7.668;2023-03-31T17:39:43;12.90;99.90
2389;DHT22;1205;47.984;7.668;2023-03-31T17:42:09;12.90;99.90
2389;DHT22;1205;47.984;7.668;2023-03-31T17:44:36;12.90;99.90
2389;DHT22;1205;47.984;7.668;2023-03-31T17:47:02;12.80;99.90
2389;DHT22;1205;47.984;7.668;2023-03-31T17:49:27;12.80;99.90
2389;DHT22;1205;47.984;7.668;2023-03-31T17:51:53;12.70;99.90
2389;DHT22;1205;47.984;7.668;2023-03-31T17:54:19;12.70;99.90
2389;DHT22;1205;47.984;7.668;2023-03-31T17:56:45;12.50;99.90
2389;DHT22;1205;47.984;7.668;2023-03-31T17:59:13;12.30;99.90
2389;DHT22;1205;47.984;7.668;2023-03-31T18:01:39;12.30;99.90
2389;DHT22;1205;47.984;7.668;2023-03-31T18:04:04;12.30;99.90
2389;DHT22;1205;47.984;7.668;2023-03-31T18:06:30;12.30;99.90
2389;DHT22;1205;47.984;7.668;2023-03-31T18:08:56;12.30;99.90
2389;DHT22;1205;47.984;7.668;2023-03-31T18:11:22;12.30;99.90
2389;DHT22;1205;47.984;7.668;2023-03-31T18:13:48;12.30;99.90
2389;DHT22;1205;47.984;7.668;2023-03-31T18:16:14;12.20;99.90
2389;DHT22;1205;47.984;7.668;2023-03-31T18:18:39;12.20;99.90
2389;DHT22;1205;47.984;7.668;2023-03-31T18:21:10;12.10;99.90
2389;DHT22;1205;47.984;7.668;2023-03-31T18:23:37;12.10;99.90
2389;DHT22;1205;47.984;7.668;2023-03-31T18:26:07;12.10;99.90
2389;DHT22;1205;47.984;7.668;2023-03-31T18:28:33;12.10;99.90
2389;DHT22;1205;47.984;7.668;2023-03-31T18:31:07;12.00;99.90
2389;DHT22;1205;47.984;7.668;2023-03-31T18:33:33;11.90;99.90
2389;DHT22;1205;47.984;7.668;2023-03-31T18:35:59;11.90;99.90
2389;DHT22;1205;47.984;7.668;2023-03-31T18:38:25;11.80;99.90
2389;DHT22;1205;47.984;7.668;2023-03-31T18:40:51;11.80;99.90
2389;DHT22;1205;47.984;7.668;2023-03-31T18:43:18;11.80;99.90
2389;DHT22;1205;47.984;7.668;2023-03-31T18:45:47;11.70;99.90
2389;DHT22;1205;47.984;7.668;2023-03-31T18:48:14;11.70;99.90
2389;DHT22;1205;47.984;7.668;2023-03-31T18:50:39;11.70;99.90
2389;DHT22;1205;47.984;7.668;2023-03-31T18:53:05;11.70;99.90
2389;DHT22;1205;47.984;7.668;2023-03-31T18:55:31;11.70;99.90
2389;DHT22;1205;47.984;7.668;2023-03-31T18:57:56;11.70;99.90
2389;DHT22;1205;47.984;7.668;2023-03-31T19:00:22;11.70;99.90